Swift Current Airport
CYYN : now visible

Airfield :











YOU CAN JOIN US ON...

 
LOGIN :

Register | Disclaimer

   EN    FR    IT 

 









Legend :    VFR   Marginal VFR   IFR   Intensive IFR   Very Intensive IFR
Visi :
Ceiling :
>= 8 km
>= 3000ft
5 to 8 km
1000 to 3000 ft
1500m to 5 km
500 to 1000 ft
800 to 1500m
200 to 500 ft
< 800m
< 200 ft
Symbols :   Thunderstorms  Fog  Heavy snow  Heavy precipitations  Wind > 20 kt






- Airport Elevation : 2680 ft
- IATA code : YYN


CYYN - Swift Current

CURRENT METAR :
  • 042300Z AUTO 10010KT 9SM CLR 25/12 A2994 RMK SLP133 DENSITY ALT 4400FT

EXPIRED METARs :
  • 042214Z AUTO 10010G21KT 9SM FEW070 SCT083 SCT100 23/17 A2995 RMK LTNG DIST NE E SE SLP136 DENSITY ALT 4100FT
  • 042202Z AUTO 10014G20KT 9SM VCTS SCT065 SCT075 BKN093 23/16 A2995 RMK LTNG DIST NE E SE SLP136 DENSITY ALT 4100FT
  • 042134Z AUTO VRB18G23KT 9SM -TSRA FEW025 BKN046 BKN065 OVC088 22/17 A2994 RMK LTNG DIST ALQDS SLP136 DENSITY ALT 4000FT
  • 042129Z AUTO VRB07G23KT 7SM TSRA FEW025 BKN044 OVC060 23/16 A2994 RMK LTNG DIST ALQDS SLP134 DENSITY ALT 4100FT
  • 042127Z AUTO VRB08G23KT 7SM +TSRA BKN044 OVC060 23/15 A2995 RMK LTNG DIST ALQDS SLP137 DENSITY ALT 4100FT
  • 042100Z AUTO 13005KT 100V170 9SM TS FEW048 BKN110 BKN130 26/16 A2994 RMK LTNG DIST SE S SLP131 DENSITY ALT 4400FT

TAF AMD TAF CYYN
Valid from the 04 at 20:00 until the 05 at 06:00 UTC


042016Z 0420/0506 14008KT P6SM SCT070
TEMPO 0420/0501 VRB20G30KT 5SM TSRA BKN060CB
FM050100 30012KT P6SM SKC
BECMG 0501/0503 32006KT RMK FCST BASED ON AUTO OBS. NXT FCST BY 050000Z
CZWG FIR / North America



MET'MAP, your aeronautical weather chart ! - Copyright ORBIFLY December 2007 - Disclaimer

ORBIFLY MET'MAP TEAM :

Programming & Development : Alexandra Zaïnal
Concept & original design : Baudouin d'Aumeries
Assistance for programming : Marc-Olivier Méhu
Technical & hardware support : Manuel Goepfert

Contact : metmap@orbifly.com




SOURCES & CREDITS :

   NOAA       Earth
Advisory